createdAt,value
2018-08-22T00:00:19.021Z,21.52
2018-08-22T00:05:14.490Z,21.40
2018-08-22T00:07:42.757Z,21.49
2018-08-22T00:10:11.074Z,21.48
2018-08-22T00:12:39.330Z,21.40
2018-08-22T00:15:07.809Z,21.30
2018-08-22T00:17:36.010Z,21.30
2018-08-22T00:20:04.214Z,21.33
2018-08-22T00:22:32.564Z,21.33
2018-08-22T00:25:00.794Z,21.22
2018-08-22T00:27:29.065Z,21.19
2018-08-22T00:29:57.290Z,21.25
2018-08-22T00:32:25.462Z,21.18
2018-08-22T00:34:53.657Z,21.17
2018-08-22T00:37:21.848Z,21.22
2018-08-22T00:39:50.110Z,21.13
2018-08-22T00:42:18.397Z,21.07
2018-08-22T00:44:46.689Z,21.33
2018-08-22T00:47:14.974Z,21.28
2018-08-22T00:49:43.165Z,21.31
2018-08-22T00:52:11.379Z,21.23
2018-08-22T00:54:39.766Z,21.14
2018-08-22T00:57:08.095Z,21.02
2018-08-22T00:59:36.326Z,21.04
2018-08-22T01:02:04.606Z,20.95
2018-08-22T01:04:32.942Z,20.93
2018-08-22T01:07:01.174Z,20.81
2018-08-22T01:09:29.364Z,20.71
2018-08-22T01:11:57.685Z,20.71
2018-08-22T01:14:25.874Z,20.71
2018-08-22T01:16:54.090Z,20.71
2018-08-22T01:19:22.319Z,20.68
2018-08-22T01:21:50.517Z,20.65
2018-08-22T01:24:18.734Z,20.54
2018-08-22T01:26:46.939Z,20.51
2018-08-22T01:29:15.172Z,20.49
2018-08-22T01:31:43.362Z,20.50
2018-08-22T01:34:11.600Z,20.38
2018-08-22T01:36:39.817Z,20.42
2018-08-22T01:39:08.386Z,20.42
2018-08-22T01:41:36.584Z,20.46
2018-08-22T01:44:04.798Z,20.42
2018-08-22T01:46:33.161Z,20.42
2018-08-22T01:49:01.366Z,20.42
2018-08-22T01:51:29.570Z,20.34
2018-08-22T01:53:57.773Z,20.39
2018-08-22T01:56:25.965Z,20.39
2018-08-22T01:58:54.203Z,20.43
2018-08-22T02:01:22.394Z,20.41
2018-08-22T02:03:50.907Z,20.36
2018-08-22T02:06:19.194Z,20.33
2018-08-22T02:08:47.390Z,20.33
2018-08-22T02:11:16.770Z,20.35
2018-08-22T02:13:45.070Z,20.34
2018-08-22T02:16:13.269Z,20.37
2018-08-22T02:18:41.550Z,20.23
2018-08-22T02:21:09.741Z,20.13
2018-08-22T02:23:37.929Z,20.02
2018-08-22T02:26:06.151Z,20.05
2018-08-22T02:28:34.359Z,19.92
2018-08-22T02:31:09.314Z,19.91
2018-08-22T02:33:37.519Z,19.98
2018-08-22T02:36:05.855Z,19.91
2018-08-22T02:38:34.074Z,19.89
2018-08-22T02:41:02.311Z,19.91
2018-08-22T02:43:30.586Z,19.80
2018-08-22T02:45:58.807Z,19.70
2018-08-22T02:48:27.055Z,19.63
2018-08-22T02:50:55.274Z,19.71
2018-08-22T02:53:23.487Z,19.63
2018-08-22T02:55:51.728Z,19.71
2018-08-22T02:58:19.920Z,19.70
2018-08-22T03:00:48.218Z,19.65
2018-08-22T03:03:16.406Z,19.62
2018-08-22T03:05:44.620Z,19.62
2018-08-22T03:08:12.843Z,19.55
2018-08-22T03:10:41.054Z,19.47
2018-08-22T03:13:09.319Z,19.48
2018-08-22T03:15:37.662Z,19.47
2018-08-22T03:18:05.863Z,19.51
2018-08-22T03:20:34.087Z,19.35
2018-08-22T03:23:02.315Z,19.45
2018-08-22T03:25:30.568Z,19.43
2018-08-22T03:27:58.782Z,19.45
2018-08-22T03:30:27.005Z,19.42
2018-08-22T03:32:55.210Z,19.39
2018-08-22T03:35:23.498Z,19.33
2018-08-22T03:37:51.999Z,19.29
2018-08-22T03:40:20.283Z,19.32
2018-08-22T03:42:48.566Z,19.24
2018-08-22T03:45:16.886Z,19.23
2018-08-22T03:47:45.162Z,19.32
2018-08-22T03:50:13.395Z,19.26
2018-08-22T03:52:41.704Z,19.19
2018-08-22T03:55:09.899Z,19.12
2018-08-22T03:57:38.795Z,19.25
2018-08-22T04:00:07.055Z,19.20
2018-08-22T04:02:35.375Z,19.08
2018-08-22T04:05:05.650Z,19.17
2018-08-22T04:07:33.862Z,19.13
2018-08-22T04:10:02.056Z,19.19
2018-08-22T04:12:30.318Z,19.24
2018-08-22T04:14:58.573Z,19.30
2018-08-22T04:17:32.683Z,19.16
2018-08-22T04:20:01.211Z,19.13
2018-08-22T04:22:29.475Z,19.17
2018-08-22T04:24:57.687Z,19.08
2018-08-22T04:27:25.915Z,19.14
2018-08-22T04:29:54.178Z,19.12
2018-08-22T04:32:25.542Z,19.04
2018-08-22T04:34:53.845Z,19.13
2018-08-22T04:37:22.086Z,19.05
2018-08-22T04:39:50.551Z,19.10
2018-08-22T04:42:18.783Z,19.09
2018-08-22T04:44:47.582Z,19.13
2018-08-22T04:47:15.787Z,19.18
2018-08-22T04:49:43.982Z,19.19
2018-08-22T04:52:12.410Z,19.20
2018-08-22T04:54:40.599Z,19.35
2018-08-22T04:57:08.815Z,19.36
2018-08-22T04:59:37.020Z,19.32
2018-08-22T05:02:05.217Z,19.38
2018-08-22T05:04:33.433Z,19.41
2018-08-22T05:07:01.655Z,19.44
2018-08-22T05:09:29.853Z,19.54
2018-08-22T05:11:58.105Z,19.56
2018-08-22T05:14:26.323Z,19.61
2018-08-22T05:16:54.535Z,19.68
2018-08-22T05:19:22.755Z,19.68
2018-08-22T05:21:50.951Z,19.73
2018-08-22T05:24:19.158Z,19.92
2018-08-22T05:26:47.383Z,19.90
2018-08-22T05:29:15.615Z,20.00
2018-08-22T05:31:43.839Z,20.06
2018-08-22T05:34:12.062Z,20.15
2018-08-22T05:36:40.259Z,20.22
2018-08-22T05:39:10.618Z,20.33
2018-08-22T05:41:38.820Z,20.39
2018-08-22T05:44:07.027Z,20.58
2018-08-22T05:46:35.227Z,20.75
2018-08-22T05:49:03.481Z,20.82
2018-08-22T05:51:31.750Z,20.53
2018-08-22T05:53:59.987Z,20.72
2018-08-22T05:56:28.207Z,20.92
2018-08-22T05:58:56.407Z,21.07
2018-08-22T06:01:24.619Z,21.09
2018-08-22T06:03:52.834Z,21.01
2018-08-22T06:06:21.093Z,21.21
2018-08-22T06:08:49.290Z,21.36
2018-08-22T06:11:17.543Z,21.16
2018-08-22T06:13:45.755Z,21.30
2018-08-22T06:16:13.955Z,21.44
2018-08-22T06:18:42.211Z,21.53
2018-08-22T06:21:10.420Z,21.46
2018-08-22T06:23:38.607Z,21.62
2018-08-22T06:26:06.836Z,21.79
2018-08-22T06:28:35.057Z,21.78
2018-08-22T06:31:03.262Z,21.90
2018-08-22T06:33:31.499Z,21.99
2018-08-22T06:35:59.691Z,21.99
2018-08-22T06:38:27.919Z,22.05
2018-08-22T06:40:56.135Z,21.99
2018-08-22T06:43:24.346Z,21.99
2018-08-22T06:45:52.542Z,22.14
2018-08-22T06:48:20.763Z,22.30
2018-08-22T06:50:48.994Z,22.42
2018-08-22T06:53:17.235Z,22.57
2018-08-22T06:55:45.444Z,22.46
2018-08-22T06:58:13.912Z,22.66
2018-08-22T07:00:42.118Z,22.63
2018-08-22T07:03:10.385Z,22.69
2018-08-22T07:05:38.649Z,22.79
2018-08-22T07:08:06.869Z,22.85
2018-08-22T07:10:35.063Z,22.93
2018-08-22T07:13:03.295Z,23.03
2018-08-22T07:15:31.612Z,23.08
2018-08-22T07:17:59.843Z,23.25
2018-08-22T07:20:28.052Z,23.19
2018-08-22T07:22:56.258Z,23.33
2018-08-22T07:25:24.447Z,23.33
2018-08-22T07:27:52.688Z,23.49
2018-08-22T07:30:20.887Z,23.45
2018-08-22T07:32:49.170Z,23.57
2018-08-22T07:35:17.375Z,23.70
2018-08-22T07:37:45.566Z,23.59
2018-08-22T07:40:13.843Z,23.52
2018-08-22T07:42:42.074Z,23.83
2018-08-22T07:45:10.311Z,24.00
2018-08-22T07:47:38.524Z,23.98
2018-08-22T07:50:06.912Z,24.07
2018-08-22T07:52:35.083Z,24.09
2018-08-22T07:55:03.423Z,24.22
2018-08-22T07:57:31.667Z,24.41
2018-08-22T08:00:00.114Z,24.44
2018-08-22T08:02:28.316Z,24.44
2018-08-22T08:04:56.588Z,24.55
2018-08-22T08:07:24.818Z,24.50
2018-08-22T08:09:53.123Z,24.63
2018-08-22T08:12:25.506Z,24.67
2018-08-22T08:14:59.319Z,24.85
2018-08-22T08:17:27.620Z,24.87
2018-08-22T08:19:55.927Z,25.16
2018-08-22T08:22:24.196Z,25.24
2018-08-22T08:24:52.427Z,25.30
2018-08-22T08:27:20.674Z,25.53
2018-08-22T08:29:49.519Z,25.33
2018-08-22T08:32:17.727Z,25.53
2018-08-22T08:34:46.047Z,25.71
2018-08-22T08:37:14.283Z,25.96
2018-08-22T08:39:42.535Z,25.85
2018-08-22T08:42:10.864Z,25.88
2018-08-22T08:44:39.188Z,26.03
2018-08-22T08:47:07.387Z,26.35
2018-08-22T08:49:38.448Z,26.46
2018-08-22T08:52:06.638Z,26.47
2018-08-22T08:54:34.904Z,26.34
2018-08-22T08:57:03.155Z,26.54
2018-08-22T08:59:31.388Z,26.51
2018-08-22T09:01:59.650Z,26.86
2018-08-22T09:04:27.955Z,26.99
2018-08-22T09:06:56.203Z,27.08
2018-08-22T09:09:24.511Z,27.08
2018-08-22T09:11:59.829Z,27.08
2018-08-22T09:14:28.474Z,27.37
2018-08-22T09:16:57.394Z,27.48
2018-08-22T09:19:25.635Z,27.49
2018-08-22T09:21:53.872Z,27.37
2018-08-22T09:24:22.109Z,27.62
2018-08-22T09:26:50.335Z,27.78
2018-08-22T09:29:18.535Z,28.04
2018-08-22T09:31:46.798Z,28.04
2018-08-22T09:34:15.030Z,28.11
2018-08-22T09:36:43.271Z,28.32
2018-08-22T09:39:12.958Z,28.26
2018-08-22T09:41:41.451Z,28.37
2018-08-22T09:44:09.692Z,28.09
2018-08-22T09:46:38.986Z,28.68
2018-08-22T09:49:07.244Z,28.74
2018-08-22T09:51:35.523Z,28.93
2018-08-22T09:54:03.750Z,28.89
2018-08-22T09:56:32.234Z,29.19
2018-08-22T09:59:00.490Z,29.20
2018-08-22T10:01:33.877Z,29.27
2018-08-22T10:04:02.635Z,29.19
2018-08-22T10:06:40.742Z,29.40
2018-08-22T10:09:13.927Z,29.53
2018-08-22T10:11:42.216Z,29.47
2018-08-22T10:14:10.471Z,29.67
2018-08-22T10:16:38.771Z,29.83
2018-08-22T10:19:07.123Z,29.91
2018-08-22T10:21:35.370Z,30.03
2018-08-22T10:24:03.600Z,30.19
2018-08-22T10:26:32.894Z,30.11
2018-08-22T10:29:32.111Z,30.19
2018-08-22T10:32:00.468Z,30.16
2018-08-22T10:34:28.771Z,29.96
2018-08-22T10:36:57.036Z,30.29
2018-08-22T10:39:25.330Z,30.33
2018-08-22T10:41:53.560Z,30.44
2018-08-22T10:44:21.810Z,30.61
2018-08-22T10:46:50.015Z,30.85
2018-08-22T10:49:18.243Z,30.45
2018-08-22T10:51:46.481Z,30.77
2018-08-22T10:54:14.725Z,30.74
2018-08-22T10:56:42.958Z,30.91
2018-08-22T10:59:11.173Z,31.09
2018-08-22T11:01:39.362Z,31.15
2018-08-22T11:04:07.575Z,31.28
2018-08-22T11:06:35.783Z,31.59
2018-08-22T11:09:06.240Z,31.24
2018-08-22T11:11:34.527Z,31.53
2018-08-22T11:14:02.783Z,31.49
2018-08-22T11:16:30.979Z,31.60
2018-08-22T11:18:59.310Z,31.66
2018-08-22T11:21:38.971Z,31.77
2018-08-22T11:24:18.533Z,31.47
2018-08-22T11:26:57.959Z,31.43
2018-08-22T11:29:37.435Z,31.47
2018-08-22T11:32:17.060Z,31.34
2018-08-22T11:34:45.900Z,31.11
2018-08-22T11:37:15.191Z,31.23
2018-08-22T11:39:45.274Z,31.29
2018-08-22T11:42:13.499Z,31.20
2018-08-22T11:44:41.718Z,30.91
2018-08-22T11:47:09.912Z,30.61
2018-08-22T11:49:38.126Z,30.57
2018-08-22T11:52:06.372Z,30.84
2018-08-22T11:54:34.551Z,30.80
2018-08-22T11:57:02.947Z,30.77
2018-08-22T11:59:31.322Z,30.98
2018-08-22T12:01:59.577Z,31.11
2018-08-22T12:04:27.778Z,31.48
2018-08-22T12:06:56.035Z,31.62
2018-08-22T12:09:24.311Z,31.51
2018-08-22T12:11:52.499Z,31.75
2018-08-22T12:14:20.779Z,31.79
2018-08-22T12:16:48.985Z,31.71
2018-08-22T12:19:17.183Z,31.42
2018-08-22T12:21:45.382Z,31.34
2018-08-22T12:24:13.588Z,31.14
2018-08-22T12:26:41.794Z,31.31
2018-08-22T12:29:10.186Z,30.98
2018-08-22T12:31:38.424Z,30.86
2018-08-22T12:34:06.644Z,30.63
2018-08-22T12:36:34.847Z,30.68
2018-08-22T12:39:03.091Z,30.95
2018-08-22T12:41:31.401Z,30.93
2018-08-22T12:43:59.591Z,30.85
2018-08-22T12:46:27.779Z,30.97
2018-08-22T12:48:55.975Z,31.00
2018-08-22T12:51:24.181Z,30.98
2018-08-22T12:53:52.375Z,31.30
2018-08-22T12:56:20.607Z,31.34
2018-08-22T12:58:48.799Z,31.37
2018-08-22T13:01:16.986Z,31.20
2018-08-22T13:03:45.179Z,31.11
2018-08-22T13:06:13.377Z,31.26
2018-08-22T13:08:41.589Z,31.20
2018-08-22T13:11:09.893Z,31.39
2018-08-22T13:13:37.996Z,31.74
2018-08-22T13:16:06.198Z,31.76
2018-08-22T13:18:34.435Z,31.91
2018-08-22T13:21:02.631Z,31.97
2018-08-22T13:23:30.840Z,32.05
2018-08-22T13:25:59.027Z,32.17
2018-08-22T13:28:27.231Z,32.16
2018-08-22T13:30:55.432Z,31.82
2018-08-22T13:33:23.642Z,31.96
2018-08-22T13:35:51.838Z,32.05
2018-08-22T13:38:20.035Z,32.64
2018-08-22T13:40:48.235Z,32.16
2018-08-22T13:43:16.475Z,32.44
2018-08-22T13:45:44.672Z,32.65
2018-08-22T13:48:12.855Z,32.19
2018-08-22T13:50:41.072Z,32.07
2018-08-22T13:53:09.278Z,31.87
2018-08-22T13:55:37.555Z,32.16
2018-08-22T13:58:05.768Z,31.97
2018-08-22T14:00:33.967Z,31.87
2018-08-22T14:03:02.187Z,31.81
2018-08-22T14:05:30.400Z,31.79
2018-08-22T14:07:58.811Z,31.82
2018-08-22T14:10:27.019Z,31.69
2018-08-22T14:12:55.258Z,31.78
2018-08-22T14:15:23.512Z,32.09
2018-08-22T14:17:51.710Z,32.32
2018-08-22T14:20:19.919Z,32.07
2018-08-22T14:22:48.122Z,31.91
2018-08-22T14:25:16.325Z,31.86
2018-08-22T14:27:44.651Z,32.06
2018-08-22T14:30:12.854Z,32.26
2018-08-22T14:32:41.052Z,32.09
2018-08-22T14:35:09.286Z,31.65
2018-08-22T14:37:37.586Z,31.77
2018-08-22T14:40:05.823Z,31.53
2018-08-22T14:42:34.008Z,31.21
2018-08-22T14:45:02.259Z,31.17
2018-08-22T14:47:30.431Z,31.18
2018-08-22T14:50:10.687Z,31.28
2018-08-22T14:52:39.003Z,31.13
2018-08-22T14:55:07.255Z,31.25
2018-08-22T14:57:35.459Z,31.06
2018-08-22T15:00:03.711Z,30.70
2018-08-22T15:02:32.075Z,30.48
2018-08-22T15:05:00.233Z,30.37
2018-08-22T15:07:28.447Z,30.35
2018-08-22T15:09:56.655Z,30.42
2018-08-22T15:12:24.907Z,30.31
2018-08-22T15:14:53.198Z,30.39
2018-08-22T15:17:21.402Z,30.64
2018-08-22T15:19:49.604Z,30.63
2018-08-22T15:22:17.879Z,30.46
2018-08-22T15:24:46.099Z,30.35
2018-08-22T15:27:14.322Z,30.25
2018-08-22T15:29:42.506Z,30.17
2018-08-22T15:32:10.730Z,30.06
2018-08-22T15:34:47.619Z,30.04
2018-08-22T15:37:16.033Z,30.20
2018-08-22T15:42:46.371Z,29.50
2018-08-22T15:45:15.097Z,29.07
2018-08-22T15:47:43.428Z,28.87
2018-08-22T15:50:11.995Z,28.52
2018-08-22T15:52:40.271Z,28.52
2018-08-22T15:55:12.019Z,28.24
2018-08-22T15:57:55.731Z,27.90
2018-08-22T16:00:32.802Z,27.94
2018-08-22T16:03:02.393Z,27.76
2018-08-22T16:05:30.724Z,27.67
2018-08-22T16:07:59.242Z,27.63
2018-08-22T16:10:27.551Z,27.67
2018-08-22T16:12:55.823Z,27.61
2018-08-22T16:15:25.235Z,27.73
2018-08-22T16:17:54.367Z,27.72
2018-08-22T16:20:26.936Z,27.67
2018-08-22T16:22:55.359Z,27.77
2018-08-22T16:25:30.226Z,27.72
2018-08-22T16:27:58.547Z,27.65
2018-08-22T16:30:26.762Z,27.25
2018-08-22T16:32:55.735Z,26.84
2018-08-22T16:35:23.918Z,26.87
2018-08-22T16:38:05.562Z,26.85
2018-08-22T16:40:36.427Z,26.95
2018-08-22T16:43:04.752Z,26.81
2018-08-22T16:45:39.974Z,26.50
2018-08-22T16:48:08.335Z,26.48
2018-08-22T16:50:36.539Z,26.18
2018-08-22T16:53:04.762Z,26.24
2018-08-22T16:55:33.162Z,26.10
2018-08-22T16:58:01.502Z,26.06
2018-08-22T17:00:36.366Z,26.20
2018-08-22T17:03:05.903Z,26.21
2018-08-22T17:05:34.302Z,26.16
2018-08-22T17:08:02.532Z,26.35
2018-08-22T17:11:05.655Z,26.30
2018-08-22T17:13:45.836Z,26.39
2018-08-22T17:16:14.097Z,26.45
2018-08-22T17:18:42.296Z,26.43
2018-08-22T17:21:10.802Z,26.53
2018-08-22T17:23:39.292Z,26.68
2018-08-22T17:26:12.500Z,26.68
2018-08-22T17:28:42.610Z,26.75
2018-08-22T17:31:11.567Z,26.75
2018-08-22T17:33:47.191Z,26.81
2018-08-22T17:36:15.463Z,27.00
2018-08-22T17:38:44.528Z,26.79
2018-08-22T17:41:13.074Z,27.18
2018-08-22T17:43:57.814Z,27.23
2018-08-22T17:46:28.114Z,26.83
2018-08-22T17:48:56.478Z,26.59
2018-08-22T17:51:24.696Z,26.50
2018-08-22T17:53:52.898Z,26.67
2018-08-22T17:56:22.782Z,26.69
2018-08-22T17:58:52.116Z,26.70
2018-08-22T18:01:20.600Z,26.57
2018-08-22T18:03:48.800Z,26.55
2018-08-22T18:06:17.345Z,26.43
2018-08-22T18:08:45.531Z,26.30
2018-08-22T18:11:13.744Z,26.26
2018-08-22T18:13:42.391Z,26.18
2018-08-22T18:16:17.078Z,26.02
2018-08-22T18:18:45.367Z,26.22
2018-08-22T18:21:13.611Z,26.15
2018-08-22T18:23:52.412Z,26.00
2018-08-22T18:26:20.691Z,25.81
2018-08-22T18:28:48.894Z,25.66
2018-08-22T18:31:17.155Z,25.61
2018-08-22T18:33:57.266Z,25.53
2018-08-22T18:36:26.479Z,25.44
2018-08-22T18:39:02.667Z,25.28
2018-08-22T18:41:30.889Z,25.23
2018-08-22T18:43:59.102Z,25.18
2018-08-22T18:46:27.325Z,25.15
2018-08-22T18:48:55.581Z,25.13
2018-08-22T18:51:23.795Z,25.10
2018-08-22T18:53:52.067Z,25.27
2018-08-22T18:56:21.700Z,25.28
2018-08-22T18:58:49.995Z,25.29
2018-08-22T19:01:18.738Z,25.21
2018-08-22T19:03:47.010Z,25.11
2018-08-22T19:06:15.311Z,25.01
2018-08-22T19:08:43.519Z,24.93
2018-08-22T19:11:11.863Z,24.88
2018-08-22T19:13:40.032Z,24.81
2018-08-22T19:16:09.611Z,24.75
2018-08-22T19:18:37.937Z,24.68
2018-08-22T19:21:07.427Z,24.60
2018-08-22T19:23:35.731Z,24.53
2018-08-22T19:26:04.955Z,24.48
2018-08-22T19:29:06.178Z,24.48
2018-08-22T19:31:35.292Z,24.46
2018-08-22T19:34:03.552Z,24.40
2018-08-22T19:36:31.843Z,24.37
2018-08-22T19:39:00.154Z,24.26
2018-08-22T19:41:32.448Z,24.27
2018-08-22T19:44:00.687Z,24.40
2018-08-22T19:46:29.010Z,24.24
2018-08-22T19:48:57.351Z,24.08
2018-08-22T19:51:25.535Z,23.97
2018-08-22T19:54:02.178Z,24.03
2018-08-22T19:56:30.899Z,23.92
2018-08-22T19:58:59.350Z,23.87
2018-08-22T20:01:30.658Z,23.88
2018-08-22T20:03:59.064Z,23.87
2018-08-22T20:06:27.514Z,23.88
2018-08-22T20:08:57.219Z,23.81
2018-08-22T20:11:25.826Z,23.79
2018-08-22T20:13:58.594Z,23.85
2018-08-22T20:16:26.862Z,23.77
2018-08-22T20:18:57.251Z,23.65
2018-08-22T20:21:30.066Z,23.78
2018-08-22T20:23:58.532Z,23.71
2018-08-22T20:26:27.449Z,23.73
2018-08-22T20:28:57.735Z,23.62
2018-08-22T20:31:26.032Z,23.46
2018-08-22T20:34:02.508Z,23.41
2018-08-22T20:36:31.095Z,23.40
2018-08-22T20:39:00.933Z,23.38
2018-08-22T20:41:29.207Z,23.47
2018-08-22T20:43:57.485Z,23.46
2018-08-22T20:46:25.806Z,23.37
2018-08-22T20:48:54.055Z,23.33
2018-08-22T20:51:22.500Z,23.36
2018-08-22T20:53:56.415Z,23.38
2018-08-22T20:56:24.745Z,23.39
2018-08-22T20:58:52.926Z,23.31
2018-08-22T21:01:21.475Z,23.27
2018-08-22T21:03:50.716Z,23.22
2018-08-22T21:06:18.950Z,23.09
2018-08-22T21:08:47.399Z,23.03
2018-08-22T21:11:15.655Z,23.02
2018-08-22T21:17:03.960Z,22.98
2018-08-22T21:19:32.227Z,22.97
2018-08-22T21:22:00.779Z,22.95
2018-08-22T21:24:29.128Z,23.01
2018-08-22T21:26:57.372Z,23.03
2018-08-22T21:29:25.724Z,22.97
2018-08-22T21:31:53.958Z,22.97
2018-08-22T21:34:23.628Z,22.96
2018-08-22T21:36:51.877Z,22.97
2018-08-22T21:39:25.348Z,22.93
2018-08-22T21:41:53.879Z,22.82
2018-08-22T21:44:22.927Z,22.72
2018-08-22T21:46:57.479Z,22.63
2018-08-22T21:49:25.855Z,22.54
2018-08-22T21:51:56.905Z,22.54
2018-08-22T21:54:25.277Z,22.44
2018-08-22T21:56:53.505Z,22.44
2018-08-22T21:59:21.742Z,22.48
2018-08-22T22:01:55.362Z,22.46
2018-08-22T22:04:29.589Z,22.41
2018-08-22T22:06:57.874Z,22.43
2018-08-22T22:09:26.099Z,22.40
2018-08-22T22:11:57.463Z,22.35
2018-08-22T22:14:26.566Z,22.27
2018-08-22T22:16:56.654Z,22.22
2018-08-22T22:19:25.979Z,22.24
2018-08-22T22:21:54.210Z,22.23
2018-08-22T22:24:22.536Z,22.16
2018-08-22T22:26:50.747Z,22.16
2018-08-22T22:29:19.055Z,22.21
2018-08-22T22:31:47.288Z,22.18
2018-08-22T22:34:15.542Z,22.13
2018-08-22T22:36:43.779Z,22.15
2018-08-22T22:39:44.586Z,22.15
2018-08-22T22:42:29.555Z,22.12
2018-08-22T22:44:59.606Z,22.16
2018-08-22T22:47:30.951Z,22.14
2018-08-22T22:49:59.758Z,22.16
2018-08-22T22:52:33.418Z,22.12
2018-08-22T22:55:02.940Z,22.03
2018-08-22T22:57:33.452Z,21.95
2018-08-22T23:00:02.639Z,21.92
2018-08-22T23:02:31.502Z,21.92
2018-08-22T23:05:00.546Z,21.91
2018-08-22T23:07:33.151Z,21.90
2018-08-22T23:10:03.670Z,21.92
2018-08-22T23:12:47.141Z,21.90
2018-08-22T23:15:17.749Z,21.85
2018-08-22T23:17:48.187Z,21.80
2018-08-22T23:20:34.670Z,21.77
2018-08-22T23:23:03.355Z,21.75
2018-08-22T23:25:31.917Z,21.69
2018-08-22T23:28:00.116Z,21.70
2018-08-22T23:30:37.324Z,21.67
2018-08-22T23:33:06.417Z,21.62
2018-08-22T23:35:35.623Z,21.71
2018-08-22T23:38:05.367Z,21.79
2018-08-22T23:40:34.763Z,21.86
2018-08-22T23:43:02.982Z,21.83
2018-08-22T23:45:31.318Z,21.75
2018-08-22T23:47:59.571Z,21.74
2018-08-22T23:50:38.162Z,21.71
2018-08-22T23:53:06.511Z,21.77
2018-08-22T23:55:34.782Z,21.79
2018-08-22T23:58:02.990Z,21.70
